sensor_id;sensor_type;location;lat;lon;timestamp;temperature;humidity
56044;DHT22;41912;51.022;3.664;2023-01-01T00:01:12;15.60;98.70
56044;DHT22;41912;51.022;3.664;2023-01-01T00:03:38;15.60;98.60
56044;DHT22;41912;51.022;3.664;2023-01-01T00:06:09;15.60;98.70
56044;DHT22;41912;51.022;3.664;2023-01-01T00:08:36;15.50;98.90
56044;DHT22;41912;51.022;3.664;2023-01-01T00:11:06;15.50;98.70
56044;DHT22;41912;51.022;3.664;2023-01-01T00:13:34;15.60;98.80
56044;DHT22;41912;51.022;3.664;2023-01-01T00:16:12;15.50;98.70
56044;DHT22;41912;51.022;3.664;2023-01-01T00:18:38;15.50;98.70
56044;DHT22;41912;51.022;3.664;2023-01-01T00:21:12;15.50;98.90
56044;DHT22;41912;51.022;3.664;2023-01-01T00:23:38;15.50;98.80
56044;DHT22;41912;51.022;3.664;2023-01-01T00:26:12;15.50;98.80
56044;DHT22;41912;51.022;3.664;2023-01-01T00:28:38;15.60;98.50
56044;DHT22;41912;51.022;3.664;2023-01-01T00:31:12;15.60;98.80
56044;DHT22;41912;51.022;3.664;2023-01-01T00:33:39;15.60;98.80
56044;DHT22;41912;51.022;3.664;2023-01-01T00:36:12;15.60;98.70
56044;DHT22;41912;51.022;3.664;2023-01-01T00:38:38;15.60;98.90
56044;DHT22;41912;51.022;3.664;2023-01-01T00:41:04;15.60;98.90
56044;DHT22;41912;51.022;3.664;2023-01-01T00:43:30;15.60;98.80
56044;DHT22;41912;51.022;3.664;2023-01-01T00:45:56;15.50;99.00
56044;DHT22;41912;51.022;3.664;2023-01-01T00:48:25;15.50;99.10
56044;DHT22;41912;51.022;3.664;2023-01-01T00:50:51;15.50;99.00
56044;DHT22;41912;51.022;3.664;2023-01-01T00:53:18;15.60;99.20
56044;DHT22;41912;51.022;3.664;2023-01-01T00:55:43;15.60;99.00
56044;DHT22;41912;51.022;3.664;2023-01-01T00:58:10;15.60;99.40
56044;DHT22;41912;51.022;3.664;2023-01-01T01:00:36;15.60;99.10
56044;DHT22;41912;51.022;3.664;2023-01-01T01:03:02;15.50;98.90
56044;DHT22;41912;51.022;3.664;2023-01-01T01:05:30;15.50;99.00
56044;DHT22;41912;51.022;3.664;2023-01-01T01:07:56;15.40;99.30
56044;DHT22;41912;51.022;3.664;2023-01-01T01:10:22;15.40;98.70
56044;DHT22;41912;51.022;3.664;2023-01-01T01:12:53;15.40;99.10
56044;DHT22;41912;51.022;3.664;2023-01-01T01:15:20;15.40;98.90
56044;DHT22;41912;51.022;3.664;2023-01-01T01:17:46;15.40;98.80
56044;DHT22;41912;51.022;3.664;2023-01-01T01:20:12;15.40;98.80
56044;DHT22;41912;51.022;3.664;2023-01-01T01:22:38;15.30;98.80
56044;DHT22;41912;51.022;3.664;2023-01-01T01:25:05;15.40;98.70
56044;DHT22;41912;51.022;3.664;2023-01-01T01:27:36;15.40;98.80
56044;DHT22;41912;51.022;3.664;2023-01-01T01:30:02;15.40;98.70
56044;DHT22;41912;51.022;3.664;2023-01-01T01:32:27;15.40;98.90
56044;DHT22;41912;51.022;3.664;2023-01-01T01:34:53;15.40;98.70
56044;DHT22;41912;51.022;3.664;2023-01-01T01:37:22;15.40;99.00
56044;DHT22;41912;51.022;3.664;2023-01-01T01:39:48;15.40;99.20
56044;DHT22;41912;51.022;3.664;2023-01-01T01:42:16;15.30;99.10
56044;DHT22;41912;51.022;3.664;2023-01-01T01:50:30;15.40;99.20
56044;DHT22;41912;51.022;3.664;2023-01-01T01:53:14;15.40;99.10
56044;DHT22;41912;51.022;3.664;2023-01-01T01:55:51;15.40;99.20
56044;DHT22;41912;51.022;3.664;2023-01-01T01:58:18;15.40;99.30
56044;DHT22;41912;51.022;3.664;2023-01-01T02:00:43;15.40;99.40
56044;DHT22;41912;51.022;3.664;2023-01-01T02:03:45;15.40;99.50
56044;DHT22;41912;51.022;3.664;2023-01-01T02:06:12;15.40;99.70
56044;DHT22;41912;51.022;3.664;2023-01-01T02:08:38;15.40;99.80
56044;DHT22;41912;51.022;3.664;2023-01-01T02:11:04;15.30;99.70
56044;DHT22;41912;51.022;3.664;2023-01-01T02:13:33;15.30;99.90
56044;DHT22;41912;51.022;3.664;2023-01-01T02:21:29;15.30;99.80
56044;DHT22;41912;51.022;3.664;2023-01-01T02:24:17;15.30;99.90
56044;DHT22;41912;51.022;3.664;2023-01-01T02:27:05;15.20;99.90
56044;DHT22;41912;51.022;3.664;2023-01-01T02:30:13;15.20;99.90
56044;DHT22;41912;51.022;3.664;2023-01-01T02:32:42;15.20;99.90
56044;DHT22;41912;51.022;3.664;2023-01-01T02:35:15;15.20;99.90
56044;DHT22;41912;51.022;3.664;2023-01-01T02:38:05;15.20;99.90
56044;DHT22;41912;51.022;3.664;2023-01-01T02:40:36;15.20;99.90
56044;DHT22;41912;51.022;3.664;2023-01-01T02:43:04;15.20;99.90
56044;DHT22;41912;51.022;3.664;2023-01-01T02:45:30;15.20;99.90
56044;DHT22;41912;51.022;3.664;2023-01-01T02:47:56;15.10;99.90
56044;DHT22;41912;51.022;3.664;2023-01-01T02:50:26;15.20;99.90
56044;DHT22;41912;51.022;3.664;2023-01-01T03:01:18;15.20;99.90
56044;DHT22;41912;51.022;3.664;2023-01-01T03:06:50;15.20;99.90
56044;DHT22;41912;51.022;3.664;2023-01-01T03:17:34;15.10;99.90
56044;DHT22;41912;51.022;3.664;2023-01-01T03:20:05;15.10;99.90
56044;DHT22;41912;51.022;3.664;2023-01-01T03:22:35;15.10;99.90
56044;DHT22;41912;51.022;3.664;2023-01-01T03:25:07;15.10;99.90
56044;DHT22;41912;51.022;3.664;2023-01-01T03:27:38;15.20;99.90
56044;DHT22;41912;51.022;3.664;2023-01-01T03:30:08;15.10;99.90
56044;DHT22;41912;51.022;3.664;2023-01-01T03:32:40;15.20;99.90
56044;DHT22;41912;51.022;3.664;2023-01-01T03:37:59;15.20;99.90
56044;DHT22;41912;51.022;3.664;2023-01-01T03:40:26;15.20;99.90
56044;DHT22;41912;51.022;3.664;2023-01-01T03:43:01;15.20;99.90
56044;DHT22;41912;51.022;3.664;2023-01-01T03:45:35;15.20;99.90
56044;DHT22;41912;51.022;3.664;2023-01-01T03:48:01;15.20;99.90
56044;DHT22;41912;51.022;3.664;2023-01-01T03:50:44;15.20;99.90
56044;DHT22;41912;51.022;3.664;2023-01-01T03:53:40;15.20;99.90
56044;DHT22;41912;51.022;3.664;2023-01-01T03:56:18;15.20;99.90
56044;DHT22;41912;51.022;3.664;2023-01-01T03:59:13;15.20;99.90
56044;DHT22;41912;51.022;3.664;2023-01-01T04:01:48;15.20;99.90
56044;DHT22;41912;51.022;3.664;2023-01-01T04:04:16;15.20;99.90
56044;DHT22;41912;51.022;3.664;2023-01-01T04:06:42;15.20;99.90
56044;DHT22;41912;51.022;3.664;2023-01-01T04:09:12;15.20;99.90
56044;DHT22;41912;51.022;3.664;2023-01-01T04:11:42;15.20;99.90
56044;DHT22;41912;51.022;3.664;2023-01-01T04:14:36;15.30;99.90
56044;DHT22;41912;51.022;3.664;2023-01-01T04:17:03;15.30;99.90
56044;DHT22;41912;51.022;3.664;2023-01-01T04:19:30;15.30;99.90
56044;DHT22;41912;51.022;3.664;2023-01-01T04:21:56;15.30;99.90
56044;DHT22;41912;51.022;3.664;2023-01-01T04:24:22;15.20;99.90
56044;DHT22;41912;51.022;3.664;2023-01-01T04:26:49;15.00;99.90
56044;DHT22;41912;51.022;3.664;2023-01-01T04:29:15;14.90;99.90
56044;DHT22;41912;51.022;3.664;2023-01-01T04:31:41;14.80;99.90
56044;DHT22;41912;51.022;3.664;2023-01-01T04:34:07;14.60;99.90
56044;DHT22;41912;51.022;3.664;2023-01-01T04:36:33;14.40;99.90
56044;DHT22;41912;51.022;3.664;2023-01-01T04:38:58;14.30;99.90
56044;DHT22;41912;51.022;3.664;2023-01-01T04:41:24;14.20;99.90
56044;DHT22;41912;51.022;3.664;2023-01-01T04:43:50;14.00;99.90
56044;DHT22;41912;51.022;3.664;2023-01-01T04:46:17;13.90;99.90
56044;DHT22;41912;51.022;3.664;2023-01-01T04:48:43;13.80;99.90
56044;DHT22;41912;51.022;3.664;2023-01-01T04:51:10;13.80;99.90
56044;DHT22;41912;51.022;3.664;2023-01-01T04:53:36;13.70;99.90
56044;DHT22;41912;51.022;3.664;2023-01-01T04:58:30;13.70;99.90
56044;DHT22;41912;51.022;3.664;2023-01-01T05:00:55;13.70;99.90
56044;DHT22;41912;51.022;3.664;2023-01-01T05:03:21;13.70;99.90
56044;DHT22;41912;51.022;3.664;2023-01-01T05:05:47;13.70;99.90
56044;DHT22;41912;51.022;3.664;2023-01-01T05:08:14;13.60;99.90
56044;DHT22;41912;51.022;3.664;2023-01-01T05:10:40;13.50;99.90
56044;DHT22;41912;51.022;3.664;2023-01-01T05:13:07;13.50;99.90
56044;DHT22;41912;51.022;3.664;2023-01-01T05:15:35;13.40;99.90
56044;DHT22;41912;51.022;3.664;2023-01-01T05:18:01;13.40;99.90
56044;DHT22;41912;51.022;3.664;2023-01-01T05:20:27;13.40;99.90
56044;DHT22;41912;51.022;3.664;2023-01-01T05:22:52;13.40;99.90
56044;DHT22;41912;51.022;3.664;2023-01-01T05:25:18;13.40;99.90
56044;DHT22;41912;51.022;3.664;2023-01-01T05:27:43;13.30;99.90
56044;DHT22;41912;51.022;3.664;2023-01-01T05:30:09;13.40;99.90
56044;DHT22;41912;51.022;3.664;2023-01-01T05:32:38;13.40;99.90
56044;DHT22;41912;51.022;3.664;2023-01-01T05:35:03;13.30;99.90
56044;DHT22;41912;51.022;3.664;2023-01-01T05:37:29;13.40;99.90
56044;DHT22;41912;51.022;3.664;2023-01-01T05:39:55;13.50;99.90
56044;DHT22;41912;51.022;3.664;2023-01-01T05:42:20;13.50;99.90
56044;DHT22;41912;51.022;3.664;2023-01-01T05:44:46;13.50;99.90
56044;DHT22;41912;51.022;3.664;2023-01-01T05:47:11;13.50;99.90
56044;DHT22;41912;51.022;3.664;2023-01-01T05:49:37;13.50;99.90
56044;DHT22;41912;51.022;3.664;2023-01-01T05:52:04;13.50;99.90
56044;DHT22;41912;51.022;3.664;2023-01-01T05:54:29;13.50;99.90
56044;DHT22;41912;51.022;3.664;2023-01-01T05:56:55;13.50;99.90
56044;DHT22;41912;51.022;3.664;2023-01-01T05:59:20;13.50;99.90
56044;DHT22;41912;51.022;3.664;2023-01-01T06:01:46;13.50;99.90
56044;DHT22;41912;51.022;3.664;2023-01-01T06:04:11;13.40;99.90
56044;DHT22;41912;51.022;3.664;2023-01-01T06:06:37;13.50;99.90
56044;DHT22;41912;51.022;3.664;2023-01-01T06:09:04;13.50;99.90
56044;DHT22;41912;51.022;3.664;2023-01-01T06:11:30;13.50;99.90
56044;DHT22;41912;51.022;3.664;2023-01-01T06:13:58;13.50;99.90
56044;DHT22;41912;51.022;3.664;2023-01-01T06:16:24;13.50;99.90
56044;DHT22;41912;51.022;3.664;2023-01-01T06:18:50;13.50;99.90
56044;DHT22;41912;51.022;3.664;2023-01-01T06:21:18;13.40;99.90
56044;DHT22;41912;51.022;3.664;2023-01-01T06:23:45;13.40;99.90
56044;DHT22;41912;51.022;3.664;2023-01-01T06:26:19;13.40;99.90
56044;DHT22;41912;51.022;3.664;2023-01-01T06:28:46;13.30;99.90
56044;DHT22;41912;51.022;3.664;2023-01-01T06:31:14;13.30;99.90
56044;DHT22;41912;51.022;3.664;2023-01-01T06:33:40;13.20;99.90
56044;DHT22;41912;51.022;3.664;2023-01-01T06:36:08;13.20;99.90
56044;DHT22;41912;51.022;3.664;2023-01-01T06:38:36;13.10;99.90
56044;DHT22;41912;51.022;3.664;2023-01-01T06:41:09;13.00;99.90
56044;DHT22;41912;51.022;3.664;2023-01-01T06:43:35;13.00;99.90
56044;DHT22;41912;51.022;3.664;2023-01-01T06:46:23;13.00;99.90
56044;DHT22;41912;51.022;3.664;2023-01-01T06:49:11;13.10;99.90
56044;DHT22;41912;51.022;3.664;2023-01-01T06:51:41;13.00;99.90
56044;DHT22;41912;51.022;3.664;2023-01-01T06:54:07;13.10;99.90
56044;DHT22;41912;51.022;3.664;2023-01-01T06:56:34;13.10;99.90
56044;DHT22;41912;51.022;3.664;2023-01-01T06:59:00;13.10;99.90
56044;DHT22;41912;51.022;3.664;2023-01-01T07:01:30;13.10;99.90
56044;DHT22;41912;51.022;3.664;2023-01-01T07:04:04;13.00;99.90
56044;DHT22;41912;51.022;3.664;2023-01-01T07:06:31;13.10;99.90
56044;DHT22;41912;51.022;3.664;2023-01-01T07:08:57;13.10;99.90
56044;DHT22;41912;51.022;3.664;2023-01-01T07:11:23;13.10;99.90
56044;DHT22;41912;51.022;3.664;2023-01-01T07:13:49;13.20;99.90
56044;DHT22;41912;51.022;3.664;2023-01-01T07:16:15;13.20;99.90
56044;DHT22;41912;51.022;3.664;2023-01-01T07:18:41;13.20;99.90
56044;DHT22;41912;51.022;3.664;2023-01-01T07:23:47;13.10;99.90
56044;DHT22;41912;51.022;3.664;2023-01-01T07:26:13;13.00;99.90
56044;DHT22;41912;51.022;3.664;2023-01-01T07:28:38;13.00;99.90
56044;DHT22;41912;51.022;3.664;2023-01-01T07:31:04;13.00;99.90
56044;DHT22;41912;51.022;3.664;2023-01-01T07:33:29;13.00;99.90
56044;DHT22;41912;51.022;3.664;2023-01-01T07:35:55;12.90;99.90
56044;DHT22;41912;51.022;3.664;2023-01-01T07:38:21;13.00;99.90
56044;DHT22;41912;51.022;3.664;2023-01-01T07:40:46;13.00;99.90
56044;DHT22;41912;51.022;3.664;2023-01-01T07:43:12;13.10;99.90
56044;DHT22;41912;51.022;3.664;2023-01-01T07:45:38;13.10;99.90
56044;DHT22;41912;51.022;3.664;2023-01-01T07:48:04;13.10;99.90
56044;DHT22;41912;51.022;3.664;2023-01-01T07:50:31;13.20;99.90
56044;DHT22;41912;51.022;3.664;2023-01-01T07:52:57;13.10;99.90
56044;DHT22;41912;51.022;3.664;2023-01-01T07:55:24;13.20;99.90
56044;DHT22;41912;51.022;3.664;2023-01-01T07:57:49;13.10;99.90
56044;DHT22;41912;51.022;3.664;2023-01-01T08:00:17;13.20;99.90
56044;DHT22;41912;51.022;3.664;2023-01-01T08:02:43;13.20;99.90
56044;DHT22;41912;51.022;3.664;2023-01-01T08:05:10;13.20;99.90
56044;DHT22;41912;51.022;3.664;2023-01-01T08:07:35;13.20;99.90
56044;DHT22;41912;51.022;3.664;2023-01-01T08:10:03;13.10;99.90
56044;DHT22;41912;51.022;3.664;2023-01-01T08:12:29;13.10;99.90
56044;DHT22;41912;51.022;3.664;2023-01-01T08:14:54;13.10;99.90
56044;DHT22;41912;51.022;3.664;2023-01-01T08:17:20;13.10;99.90
56044;DHT22;41912;51.022;3.664;2023-01-01T08:19:45;13.10;99.90
56044;DHT22;41912;51.022;3.664;2023-01-01T08:22:13;13.00;99.90
56044;DHT22;41912;51.022;3.664;2023-01-01T08:24:39;13.10;99.90
56044;DHT22;41912;51.022;3.664;2023-01-01T08:27:06;13.10;99.90
56044;DHT22;41912;51.022;3.664;2023-01-01T08:29:31;13.10;99.90
56044;DHT22;41912;51.022;3.664;2023-01-01T08:31:57;13.00;99.90
56044;DHT22;41912;51.022;3.664;2023-01-01T08:34:23;13.00;99.90
56044;DHT22;41912;51.022;3.664;2023-01-01T08:36:48;13.10;99.90
56044;DHT22;41912;51.022;3.664;2023-01-01T08:39:14;13.10;99.90
56044;DHT22;41912;51.022;3.664;2023-01-01T08:41:40;13.10;99.90
56044;DHT22;41912;51.022;3.664;2023-01-01T08:44:05;13.10;99.90
56044;DHT22;41912;51.022;3.664;2023-01-01T08:46:31;13.20;99.90
56044;DHT22;41912;51.022;3.664;2023-01-01T08:48:57;13.20;99.90
56044;DHT22;41912;51.022;3.664;2023-01-01T08:51:22;13.10;99.90
56044;DHT22;41912;51.022;3.664;2023-01-01T08:53:48;13.10;99.90
56044;DHT22;41912;51.022;3.664;2023-01-01T08:56:14;13.10;99.90
56044;DHT22;41912;51.022;3.664;2023-01-01T08:58:42;13.10;99.90
56044;DHT22;41912;51.022;3.664;2023-01-01T09:01:09;13.10;99.90
56044;DHT22;41912;51.022;3.664;2023-01-01T09:03:35;13.10;99.90
56044;DHT22;41912;51.022;3.664;2023-01-01T09:06:01;13.10;99.90
56044;DHT22;41912;51.022;3.664;2023-01-01T09:08:27;13.10;99.90
56044;DHT22;41912;51.022;3.664;2023-01-01T09:10:57;13.10;99.90
56044;DHT22;41912;51.022;3.664;2023-01-01T09:13:22;13.20;99.90
56044;DHT22;41912;51.022;3.664;2023-01-01T09:15:48;13.20;99.90
56044;DHT22;41912;51.022;3.664;2023-01-01T09:18:14;13.20;99.90
56044;DHT22;41912;51.022;3.664;2023-01-01T09:20:39;13.20;99.90
56044;DHT22;41912;51.022;3.664;2023-01-01T09:23:06;13.20;99.90
56044;DHT22;41912;51.022;3.664;2023-01-01T09:25:32;13.10;99.90
56044;DHT22;41912;51.022;3.664;2023-01-01T09:28:06;13.10;99.90
56044;DHT22;41912;51.022;3.664;2023-01-01T09:30:32;13.10;99.90
56044;DHT22;41912;51.022;3.664;2023-01-01T09:32:58;13.20;99.90
56044;DHT22;41912;51.022;3.664;2023-01-01T09:35:24;13.10;99.90
56044;DHT22;41912;51.022;3.664;2023-01-01T09:37:50;13.20;99.90
56044;DHT22;41912;51.022;3.664;2023-01-01T09:46:03;13.30;99.90
56044;DHT22;41912;51.022;3.664;2023-01-01T09:48:31;13.20;99.90
56044;DHT22;41912;51.022;3.664;2023-01-01T09:50:58;13.20;99.90
56044;DHT22;41912;51.022;3.664;2023-01-01T09:53:39;13.20;99.90
56044;DHT22;41912;51.022;3.664;2023-01-01T09:56:22;13.20;99.90
56044;DHT22;41912;51.022;3.664;2023-01-01T09:58:50;13.30;99.90
56044;DHT22;41912;51.022;3.664;2023-01-01T10:01:45;13.20;99.90
56044;DHT22;41912;51.022;3.664;2023-01-01T10:12:35;13.20;99.90
56044;DHT22;41912;51.022;3.664;2023-01-01T10:15:16;13.20;99.90
56044;DHT22;41912;51.022;3.664;2023-01-01T10:17:49;13.30;99.90
56044;DHT22;41912;51.022;3.664;2023-01-01T10:20:17;13.20;99.90
56044;DHT22;41912;51.022;3.664;2023-01-01T10:22:47;13.30;99.90
56044;DHT22;41912;51.022;3.664;2023-01-01T10:25:23;13.30;99.90
56044;DHT22;41912;51.022;3.664;2023-01-01T10:28:02;13.40;99.90
56044;DHT22;41912;51.022;3.664;2023-01-01T10:30:29;13.40;99.90
56044;DHT22;41912;51.022;3.664;2023-01-01T10:32:56;13.50;99.90
56044;DHT22;41912;51.022;3.664;2023-01-01T10:35:35;13.50;99.90
56044;DHT22;41912;51.022;3.664;2023-01-01T10:38:04;13.50;99.90
56044;DHT22;41912;51.022;3.664;2023-01-01T10:40:31;13.60;99.90
56044;DHT22;41912;51.022;3.664;2023-01-01T10:42:59;13.60;99.90
56044;DHT22;41912;51.022;3.664;2023-01-01T10:45:33;13.70;99.90
56044;DHT22;41912;51.022;3.664;2023-01-01T10:48:10;13.70;99.90
56044;DHT22;41912;51.022;3.664;2023-01-01T10:51:01;13.70;99.90
56044;DHT22;41912;51.022;3.664;2023-01-01T10:53:50;13.70;99.90
56044;DHT22;41912;51.022;3.664;2023-01-01T10:56:22;13.70;99.90
56044;DHT22;41912;51.022;3.664;2023-01-01T10:58:56;13.60;99.90
56044;DHT22;41912;51.022;3.664;2023-01-01T11:01:31;13.70;99.90
56044;DHT22;41912;51.022;3.664;2023-01-01T11:04:17;13.70;99.90
56044;DHT22;41912;51.022;3.664;2023-01-01T11:06:44;13.70;99.90
56044;DHT22;41912;51.022;3.664;2023-01-01T11:09:21;13.70;99.90
56044;DHT22;41912;51.022;3.664;2023-01-01T11:11:53;13.80;99.90
56044;DHT22;41912;51.022;3.664;2023-01-01T11:14:24;13.80;99.90
56044;DHT22;41912;51.022;3.664;2023-01-01T11:16:51;13.70;99.90
56044;DHT22;41912;51.022;3.664;2023-01-01T11:21:47;13.80;99.90
56044;DHT22;41912;51.022;3.664;2023-01-01T11:26:47;13.80;99.90
56044;DHT22;41912;51.022;3.664;2023-01-01T11:29:27;13.80;99.90
56044;DHT22;41912;51.022;3.664;2023-01-01T11:31:55;13.90;99.90
56044;DHT22;41912;51.022;3.664;2023-01-01T11:34:34;13.90;99.90
56044;DHT22;41912;51.022;3.664;2023-01-01T11:37:30;13.90;99.90
56044;DHT22;41912;51.022;3.664;2023-01-01T11:40:00;14.00;99.90
56044;DHT22;41912;51.022;3.664;2023-01-01T11:42:30;13.90;99.90
56044;DHT22;41912;51.022;3.664;2023-01-01T11:47:34;14.10;99.90
56044;DHT22;41912;51.022;3.664;2023-01-01T11:50:16;14.10;99.90
56044;DHT22;41912;51.022;3.664;2023-01-01T11:52:48;14.10;99.90
56044;DHT22;41912;51.022;3.664;2023-01-01T11:55:47;14.20;99.90
56044;DHT22;41912;51.022;3.664;2023-01-01T11:58:22;14.20;99.90
56044;DHT22;41912;51.022;3.664;2023-01-01T12:00:53;14.10;99.90
56044;DHT22;41912;51.022;3.664;2023-01-01T12:03:42;14.10;99.90
56044;DHT22;41912;51.022;3.664;2023-01-01T12:06:20;14.00;99.90
56044;DHT22;41912;51.022;3.664;2023-01-01T12:08:53;14.10;99.90
56044;DHT22;41912;51.022;3.664;2023-01-01T12:11:59;14.10;99.90
56044;DHT22;41912;51.022;3.664;2023-01-01T12:14:43;14.20;99.90
56044;DHT22;41912;51.022;3.664;2023-01-01T12:20:08;14.20;99.90
56044;DHT22;41912;51.022;3.664;2023-01-01T12:22:35;14.20;99.90
56044;DHT22;41912;51.022;3.664;2023-01-01T12:25:02;14.20;99.90
56044;DHT22;41912;51.022;3.664;2023-01-01T12:33:25;14.20;99.90
56044;DHT22;41912;51.022;3.664;2023-01-01T12:35:56;14.20;99.90
56044;DHT22;41912;51.022;3.664;2023-01-01T12:46:44;14.20;99.90
56044;DHT22;41912;51.022;3.664;2023-01-01T13:00:02;14.30;99.90
56044;DHT22;41912;51.022;3.664;2023-01-01T13:02:31;14.30;99.90
56044;DHT22;41912;51.022;3.664;2023-01-01T13:05:05;14.40;99.90
56044;DHT22;41912;51.022;3.664;2023-01-01T13:07:38;14.40;99.90
56044;DHT22;41912;51.022;3.664;2023-01-01T13:12:53;14.40;99.90
56044;DHT22;41912;51.022;3.664;2023-01-01T13:15:47;14.40;99.90
56044;DHT22;41912;51.022;3.664;2023-01-01T13:48:07;14.40;99.90
56044;DHT22;41912;51.022;3.664;2023-01-01T13:53:25;14.40;99.90
56044;DHT22;41912;51.022;3.664;2023-01-01T13:59:37;14.40;99.90
56044;DHT22;41912;51.022;3.664;2023-01-01T14:02:39;14.50;99.90
56044;DHT22;41912;51.022;3.664;2023-01-01T14:04:50;14.40;99.90
56044;DHT22;41912;51.022;3.664;2023-01-01T14:07:43;14.40;99.90
56044;DHT22;41912;51.022;3.664;2023-01-01T14:10:21;14.40;99.90
56044;DHT22;41912;51.022;3.664;2023-01-01T14:12:47;14.40;99.90
56044;DHT22;41912;51.022;3.664;2023-01-01T14:15:15;14.40;99.90
56044;DHT22;41912;51.022;3.664;2023-01-01T14:17:42;14.40;99.90
56044;DHT22;41912;51.022;3.664;2023-01-01T14:20:12;14.40;99.90
56044;DHT22;41912;51.022;3.664;2023-01-01T14:22:39;14.40;99.90
56044;DHT22;41912;51.022;3.664;2023-01-01T14:25:05;14.40;99.90
56044;DHT22;41912;51.022;3.664;2023-01-01T14:27:31;14.40;99.90
56044;DHT22;41912;51.022;3.664;2023-01-01T14:29:57;14.40;99.90
56044;DHT22;41912;51.022;3.664;2023-01-01T14:32:23;14.40;99.90
56044;DHT22;41912;51.022;3.664;2023-01-01T14:35:00;14.30;99.90
56044;DHT22;41912;51.022;3.664;2023-01-01T14:37:28;14.40;99.90
56044;DHT22;41912;51.022;3.664;2023-01-01T14:40:17;14.40;99.90
56044;DHT22;41912;51.022;3.664;2023-01-01T14:43:03;14.40;99.90
56044;DHT22;41912;51.022;3.664;2023-01-01T14:45:33;14.40;99.90
56044;DHT22;41912;51.022;3.664;2023-01-01T14:48:00;14.30;99.90
56044;DHT22;41912;51.022;3.664;2023-01-01T14:50:31;14.20;99.90
56044;DHT22;41912;51.022;3.664;2023-01-01T14:53:06;14.30;99.90
56044;DHT22;41912;51.022;3.664;2023-01-01T14:55:39;14.20;99.90
56044;DHT22;41912;51.022;3.664;2023-01-01T14:58:18;14.20;99.90
56044;DHT22;41912;51.022;3.664;2023-01-01T15:00:45;14.30;99.90
56044;DHT22;41912;51.022;3.664;2023-01-01T15:03:12;14.20;99.90
56044;DHT22;41912;51.022;3.664;2023-01-01T15:05:39;14.30;99.90
56044;DHT22;41912;51.022;3.664;2023-01-01T15:08:16;14.30;99.90
56044;DHT22;41912;51.022;3.664;2023-01-01T15:10:42;14.30;99.90
56044;DHT22;41912;51.022;3.664;2023-01-01T15:13:12;14.30;99.90
56044;DHT22;41912;51.022;3.664;2023-01-01T15:15:43;14.20;99.90
56044;DHT22;41912;51.022;3.664;2023-01-01T15:21:31;14.30;99.90
56044;DHT22;41912;51.022;3.664;2023-01-01T15:23:55;14.30;99.90
56044;DHT22;41912;51.022;3.664;2023-01-01T15:26:38;14.30;99.90
56044;DHT22;41912;51.022;3.664;2023-01-01T15:29:08;14.30;99.90
56044;DHT22;41912;51.022;3.664;2023-01-01T15:31:41;14.30;99.90
56044;DHT22;41912;51.022;3.664;2023-01-01T15:42:22;14.00;99.90
56044;DHT22;41912;51.022;3.664;2023-01-01T15:44:54;14.00;99.90
56044;DHT22;41912;51.022;3.664;2023-01-01T15:47:19;14.00;99.90
56044;DHT22;41912;51.022;3.664;2023-01-01T15:50:09;14.00;99.90
56044;DHT22;41912;51.022;3.664;2023-01-01T15:52:36;14.00;99.90
56044;DHT22;41912;51.022;3.664;2023-01-01T15:55:02;14.00;99.90
56044;DHT22;41912;51.022;3.664;2023-01-01T15:57:28;14.00;99.90
56044;DHT22;41912;51.022;3.664;2023-01-01T15:59:54;14.00;99.90
56044;DHT22;41912;51.022;3.664;2023-01-01T16:02:28;14.00;99.90
56044;DHT22;41912;51.022;3.664;2023-01-01T16:04:55;14.00;99.90
56044;DHT22;41912;51.022;3.664;2023-01-01T16:07:22;13.90;99.90
56044;DHT22;41912;51.022;3.664;2023-01-01T16:09:49;13.90;99.90
56044;DHT22;41912;51.022;3.664;2023-01-01T16:12:15;13.90;99.90
56044;DHT22;41912;51.022;3.664;2023-01-01T16:14:41;13.80;99.90
56044;DHT22;41912;51.022;3.664;2023-01-01T16:17:18;13.80;99.90
56044;DHT22;41912;51.022;3.664;2023-01-01T16:19:45;13.80;99.90
56044;DHT22;41912;51.022;3.664;2023-01-01T16:22:16;13.80;99.90
56044;DHT22;41912;51.022;3.664;2023-01-01T16:24:43;13.70;99.90
56044;DHT22;41912;51.022;3.664;2023-01-01T16:27:09;13.70;99.90
56044;DHT22;41912;51.022;3.664;2023-01-01T16:29:35;13.70;99.90
56044;DHT22;41912;51.022;3.664;2023-01-01T16:32:01;13.70;99.90
56044;DHT22;41912;51.022;3.664;2023-01-01T16:34:26;13.70;99.90
56044;DHT22;41912;51.022;3.664;2023-01-01T16:36:52;13.70;99.90
56044;DHT22;41912;51.022;3.664;2023-01-01T16:39:18;13.70;99.90
56044;DHT22;41912;51.022;3.664;2023-01-01T16:41:43;13.70;99.90
56044;DHT22;41912;51.022;3.664;2023-01-01T16:44:13;13.70;99.90
56044;DHT22;41912;51.022;3.664;2023-01-01T16:46:39;13.60;99.90
56044;DHT22;41912;51.022;3.664;2023-01-01T16:49:05;13.60;99.90
56044;DHT22;41912;51.022;3.664;2023-01-01T16:51:32;13.60;99.90
56044;DHT22;41912;51.022;3.664;2023-01-01T16:53:58;13.50;99.90
56044;DHT22;41912;51.022;3.664;2023-01-01T16:56:26;13.50;99.90
56044;DHT22;41912;51.022;3.664;2023-01-01T16:58:52;13.50;99.90
56044;DHT22;41912;51.022;3.664;2023-01-01T17:01:19;13.50;99.90
56044;DHT22;41912;51.022;3.664;2023-01-01T17:03:45;13.50;99.90
56044;DHT22;41912;51.022;3.664;2023-01-01T17:06:11;13.50;99.90
56044;DHT22;41912;51.022;3.664;2023-01-01T17:08:37;13.50;99.90
56044;DHT22;41912;51.022;3.664;2023-01-01T17:13:35;13.50;99.90
56044;DHT22;41912;51.022;3.664;2023-01-01T17:16:01;13.50;99.90
56044;DHT22;41912;51.022;3.664;2023-01-01T17:18:27;13.40;99.90
56044;DHT22;41912;51.022;3.664;2023-01-01T17:20:53;13.40;99.90
56044;DHT22;41912;51.022;3.664;2023-01-01T17:23:19;13.40;99.90
56044;DHT22;41912;51.022;3.664;2023-01-01T17:25:44;13.40;99.90
56044;DHT22;41912;51.022;3.664;2023-01-01T17:28:10;13.40;99.90
56044;DHT22;41912;51.022;3.664;2023-01-01T17:30:36;13.40;99.90
56044;DHT22;41912;51.022;3.664;2023-01-01T17:33:01;13.40;99.90
56044;DHT22;41912;51.022;3.664;2023-01-01T17:35:27;13.40;99.90
56044;DHT22;41912;51.022;3.664;2023-01-01T17:37:52;13.40;99.90
56044;DHT22;41912;51.022;3.664;2023-01-01T17:40:18;13.40;99.90
56044;DHT22;41912;51.022;3.664;2023-01-01T17:42:44;13.30;99.90
56044;DHT22;41912;51.022;3.664;2023-01-01T17:45:09;13.30;99.90
56044;DHT22;41912;51.022;3.664;2023-01-01T17:47:35;13.30;99.90
56044;DHT22;41912;51.022;3.664;2023-01-01T17:50:01;13.30;99.90
56044;DHT22;41912;51.022;3.664;2023-01-01T17:52:26;13.30;99.90
56044;DHT22;41912;51.022;3.664;2023-01-01T17:54:52;13.40;99.90
56044;DHT22;41912;51.022;3.664;2023-01-01T17:57:18;13.30;99.90
56044;DHT22;41912;51.022;3.664;2023-01-01T17:59:44;13.30;99.90
56044;DHT22;41912;51.022;3.664;2023-01-01T18:02:13;13.30;99.90
56044;DHT22;41912;51.022;3.664;2023-01-01T18:04:40;13.30;99.90
56044;DHT22;41912;51.022;3.664;2023-01-01T18:07:05;13.30;99.90